Time;durP1;ratioP1;P1;durP2;ratioP2;P2;SDS_P1;SDS_P2;PMS_P1;PMS_P2;Temp;Humidity;BMP_temperature;BMP_pressure;BME280_temperature;BME280_humidity;BME280_pressure;Samples;Min_cycle;Max_cycle;Signal;HPM_P1;HPM_P2
2022/12/02 00:02:17;;;;;;;;;;;;;;;4.75;50.38;100476.78;4965418;28;20008;-63
2022/12/02 00:04:43;;;;;;;;;;;;;;;4.90;52.17;100479.53;4965931;28;19950;-62
2022/12/02 00:07:11;;;;;;;;;;;;;;;4.92;53.79;100467.66;4967328;28;20033;-63
2022/12/02 00:09:37;;;;;;;;;;;;;;;4.48;58.81;100432.13;4968767;28;19917;-63
2022/12/02 00:12:22;;;;;;;;;;;;;;;4.18;57.54;100412.94;4966942;28;20355;-62
2022/12/02 00:14:56;;;;;;;;;;;;;;;4.07;55.10;100429.75;4965624;28;20003;-63
2022/12/02 00:17:22;;;;;;;;;;;;;;;4.49;52.25;100454.25;4969592;28;19922;-63
2022/12/02 00:19:47;;;;;;;;;;;;;;;4.77;51.97;100467.44;4967796;28;19925;-63
2022/12/02 00:22:12;;;;;;;;;;;;;;;4.45;54.84;100452.50;4967955;28;19922;-63
2022/12/02 00:24:37;;;;;;;;;;;;;;;4.11;54.81;100441.72;4966420;28;19926;-63
2022/12/02 00:27:02;;;;;;;;;;;;;;;4.18;52.79;100448.66;4968493;28;20411;-62
2022/12/02 00:29:28;;;;;;;;;;;;;;;4.78;50.31;100471.72;4968029;28;19991;-63
2022/12/02 00:31:53;;;;;;;;;;;;;;;4.30;54.25;100459.88;4969634;28;19914;-63
2022/12/02 00:34:18;;;;;;;;;;;;;;;4.92;50.59;100482.97;4973896;28;19922;-63
2022/12/02 00:36:43;;;;;;;;;;;;;;;4.40;54.77;100452.41;4968523;28;19954;-63
2022/12/02 00:39:09;;;;;;;;;;;;;;;3.72;57.27;100427.44;4969233;28;20457;-62
2022/12/02 00:41:34;;;;;;;;;;;;;;;3.87;50.93;100451.47;4968759;28;20568;-63
2022/12/02 00:46:43;;;;;;;;;;;;;;;3.52;52.71;100464.41;4969732;28;19998;-63
2022/12/02 00:49:12;;;;;;;;;;;;;;;4.21;48.07;100508.19;4969867;28;19926;-62
2022/12/02 00:51:37;;;;;;;;;;;;;;;4.21;49.17;100508.19;4968720;28;19948;-63
2022/12/02 00:54:03;;;;;;;;;;;;;;;3.98;50.91;100491.63;4968839;28;19931;-63
2022/12/02 00:56:28;;;;;;;;;;;;;;;3.83;49.51;100500.66;4968023;28;19922;-63
2022/12/02 00:58:53;;;;;;;;;;;;;;;3.75;50.54;100503.91;4967431;28;19946;-63
2022/12/02 01:01:19;;;;;;;;;;;;;;;4.23;48.87;100524.38;4970129;28;20493;-63
2022/12/02 01:03:44;;;;;;;;;;;;;;;3.63;52.12;100503.69;4970305;28;20375;-63
2022/12/02 01:06:09;;;;;;;;;;;;;;;3.69;51.98;100516.53;4968934;28;20395;-63
2022/12/02 01:08:34;;;;;;;;;;;;;;;3.99;51.45;100530.69;4969562;28;19929;-63
2022/12/02 01:11:00;;;;;;;;;;;;;;;3.99;53.05;100538.34;4969307;28;19918;-63
2022/12/02 01:13:25;;;;;;;;;;;;;;;4.51;52.51;100564.81;4966472;28;19922;-63
2022/12/02 01:15:51;;;;;;;;;;;;;;;4.22;53.67;100543.03;4971265;28;20017;-63
2022/12/02 01:18:16;;;;;;;;;;;;;;;4.02;53.61;100528.25;4965601;28;20343;-63
2022/12/02 01:20:41;;;;;;;;;;;;;;;3.93;54.80;100533.16;4969158;28;19920;-63
2022/12/02 01:23:06;;;;;;;;;;;;;;;4.27;54.30;100554.19;4971268;28;20071;-63
2022/12/02 01:25:33;;;;;;;;;;;;;;;4.10;55.85;100546.22;4968116;28;19957;-64
2022/12/02 01:27:58;;;;;;;;;;;;;;;4.64;54.48;100568.47;4970052;28;19937;-63
2022/12/02 01:30:23;;;;;;;;;;;;;;;3.92;56.94;100536.50;4966450;28;19922;-63
2022/12/02 01:32:48;;;;;;;;;;;;;;;3.88;56.93;100529.66;4971542;28;20248;-63
2022/12/02 01:35:13;;;;;;;;;;;;;;;3.53;57.94;100532.31;4966864;28;20528;-62
2022/12/02 01:37:39;;;;;;;;;;;;;;;4.12;56.50;100550.50;4966301;28;19925;-62
2022/12/02 01:40:04;;;;;;;;;;;;;;;3.60;58.44;100539.25;4966217;28;19928;-63
2022/12/02 01:42:29;;;;;;;;;;;;;;;3.65;59.29;100552.09;4965861;28;20024;-64
2022/12/02 01:44:55;;;;;;;;;;;;;;;3.82;59.54;100571.16;4968082;28;19918;-65
2022/12/02 01:47:20;;;;;;;;;;;;;;;3.71;61.32;100558.19;4967081;28;20022;-63
2022/12/02 01:49:45;;;;;;;;;;;;;;;3.82;61.06;100570.31;4968715;28;19982;-63
2022/12/02 01:52:10;;;;;;;;;;;;;;;4.37;60.73;100607.09;4968936;28;19961;-62
2022/12/02 01:54:36;;;;;;;;;;;;;;;4.03;61.83;100580.94;4969781;28;19975;-62
2022/12/02 01:57:02;;;;;;;;;;;;;;;4.08;62.24;100581.91;4965157;28;19918;-62
2022/12/02 01:59:27;;;;;;;;;;;;;;;3.87;62.94;100573.81;4967159;28;19918;-63
2022/12/02 02:01:52;;;;;;;;;;;;;;;3.40;64.03;100563.44;4966467;28;20004;-62
2022/12/02 02:04:17;;;;;;;;;;;;;;;3.79;62.42;100581.31;4970283;28;19926;-62
2022/12/02 02:06:43;;;;;;;;;;;;;;;3.61;64.10;100580.91;4968530;28;19918;-62
2022/12/02 02:09:09;;;;;;;;;;;;;;;3.85;64.59;100590.75;4970025;28;19930;-63
2022/12/02 02:11:34;;;;;;;;;;;;;;;3.66;65.32;100585.25;4968626;28;19932;-62
2022/12/02 02:14:00;;;;;;;;;;;;;;;3.21;67.07;100560.50;4966924;28;19917;-62
2022/12/02 02:16:25;;;;;;;;;;;;;;;3.77;65.70;100588.03;4967131;28;19922;-62
2022/12/02 02:18:50;;;;;;;;;;;;;;;4.02;65.97;100604.72;4967135;28;20924;-63
2022/12/02 02:21:18;;;;;;;;;;;;;;;3.95;66.43;100603.72;4967339;28;19952;-63
2022/12/02 02:23:43;;;;;;;;;;;;;;;4.21;66.00;100610.16;4968382;28;19918;-62
2022/12/02 02:26:08;;;;;;;;;;;;;;;3.87;67.19;100586.53;4966408;28;19922;-62
2022/12/02 02:28:34;;;;;;;;;;;;;;;3.73;67.53;100574.38;4967517;28;19925;-62
2022/12/02 02:30:59;;;;;;;;;;;;;;;3.96;67.39;100579.09;4969299;28;19929;-62
2022/12/02 02:33:25;;;;;;;;;;;;;;;4.47;66.57;100597.91;4966998;28;20348;-62
2022/12/02 02:35:50;;;;;;;;;;;;;;;4.60;66.07;100594.75;4965987;28;19921;-63
2022/12/02 02:38:17;;;;;;;;;;;;;;;3.68;68.66;100547.94;4967118;28;20379;-62
2022/12/02 02:40:42;;;;;;;;;;;;;;;3.83;67.50;100554.19;4966233;28;19997;-62
2022/12/02 02:43:07;;;;;;;;;;;;;;;3.65;67.68;100542.78;4967341;28;19921;-62
2022/12/02 02:45:33;;;;;;;;;;;;;;;3.90;67.41;100563.66;4963020;28;20375;-63
2022/12/02 02:47:59;;;;;;;;;;;;;;;3.42;69.23;100543.97;4968345;28;19972;-63
2022/12/02 02:50:24;;;;;;;;;;;;;;;3.98;67.82;100577.44;4964061;28;19926;-63
2022/12/02 02:52:49;;;;;;;;;;;;;;;4.10;67.31;100581.91;4966798;28;20383;-63
2022/12/02 02:55:17;;;;;;;;;;;;;;;4.14;67.70;100584.53;4968482;28;20389;-63
2022/12/02 02:57:42;;;;;;;;;;;;;;;3.39;70.10;100541.38;4968814;28;19935;-62
2022/12/02 03:00:08;;;;;;;;;;;;;;;4.06;68.63;100580.13;4965913;28;19938;-63
2022/12/02 03:02:33;;;;;;;;;;;;;;;3.99;69.01;100584.22;4965875;28;19949;-63
2022/12/02 03:04:58;;;;;;;;;;;;;;;4.24;68.52;100597.47;4969752;28;20008;-62
2022/12/02 03:07:23;;;;;;;;;;;;;;;3.64;70.76;100561.44;4969501;28;19926;-62
2022/12/02 03:09:49;;;;;;;;;;;;;;;3.83;70.44;100569.47;4966456;28;19964;-63
2022/12/02 03:12:14;;;;;;;;;;;;;;;4.15;69.75;100582.84;4967676;28;19918;-62
2022/12/02 03:14:39;;;;;;;;;;;;;;;3.63;70.78;100564.84;4967496;28;20054;-63
2022/12/02 03:17:05;;;;;;;;;;;;;;;3.19;72.54;100549.41;4963716;28;19926;-63
2022/12/02 03:19:30;;;;;;;;;;;;;;;3.55;73.13;100582.47;4966454;28;19918;-62
2022/12/02 03:21:55;;;;;;;;;;;;;;;3.51;74.46;100590.00;4963520;28;19922;-63
2022/12/02 03:24:21;;;;;;;;;;;;;;;4.01;74.70;100628.47;4971437;28;19928;-62
2022/12/02 03:26:46;;;;;;;;;;;;;;;4.18;74.47;100626.28;4967610;28;20775;-63
2022/12/02 03:29:11;;;;;;;;;;;;;;;4.48;74.31;100628.56;4964907;28;19982;-63
2022/12/02 03:31:36;;;;;;;;;;;;;;;3.63;76.34;100563.97;4965808;28;19947;-63
2022/12/02 03:34:02;;;;;;;;;;;;;;;4.02;74.86;100586.00;4968978;28;19918;-63
2022/12/02 03:36:27;;;;;;;;;;;;;;;3.86;75.29;100574.66;4971956;28;19918;-62
2022/12/02 03:38:52;;;;;;;;;;;;;;;4.27;73.97;100600.97;4965423;28;19922;-63
2022/12/02 03:41:18;;;;;;;;;;;;;;;3.37;76.07;100548.13;4968251;28;20442;-63
2022/12/02 03:43:43;;;;;;;;;;;;;;;3.72;75.50;100571.81;4965520;28;19926;-63
2022/12/02 03:46:08;;;;;;;;;;;;;;;3.73;76.14;100582.00;4965418;28;19933;-63
2022/12/02 03:48:34;;;;;;;;;;;;;;;3.20;77.84;100573.19;4965715;28;19926;-63
2022/12/02 03:50:59;;;;;;;;;;;;;;;3.50;78.66;100594.25;4967946;28;19926;-63
2022/12/02 03:53:25;;;;;;;;;;;;;;;3.95;78.07;100624.09;4965193;28;19922;-63
2022/12/02 03:55:50;;;;;;;;;;;;;;;3.63;79.40;100603.03;4964647;28;19918;-62
2022/12/02 03:58:15;;;;;;;;;;;;;;;3.51;79.84;100600.19;4963588;28;19922;-63
2022/12/02 04:00:40;;;;;;;;;;;;;;;3.97;79.08;100630.09;4964666;28;19918;-63
2022/12/02 04:03:06;;;;;;;;;;;;;;;3.65;79.73;100605.59;4964574;28;20055;-62
2022/12/02 04:05:31;;;;;;;;;;;;;;;4.06;79.53;100626.00;4969944;28;19996;-62
2022/12/02 04:07:56;;;;;;;;;;;;;;;3.75;79.56;100610.09;4973665;28;19926;-62
2022/12/02 04:10:22;;;;;;;;;;;;;;;4.16;79.43;100612.63;4969133;28;19929;-62
2022/12/02 04:12:47;;;;;;;;;;;;;;;3.50;81.07;100578.13;4972282;28;19921;-63
2022/12/02 04:15:12;;;;;;;;;;;;;;;3.55;80.54;100577.38;4971112;28;20008;-63
2022/12/02 04:17:38;;;;;;;;;;;;;;;4.03;79.25;100603.00;4968947;28;19926;-62
2022/12/02 04:20:04;;;;;;;;;;;;;;;3.78;80.24;100585.50;4972541;28;20016;-62
2022/12/02 04:22:29;;;;;;;;;;;;;;;3.92;80.05;100587.50;4969951;28;19975;-63
2022/12/02 04:24:57;;;;;;;;;;;;;;;4.32;78.90;100603.59;4970615;28;20550;-62
2022/12/02 04:27:22;;;;;;;;;;;;;;;3.88;79.88;100568.75;4968501;28;19926;-62
2022/12/02 04:29:48;;;;;;;;;;;;;;;3.93;78.83;100568.84;4969331;28;19983;-62
2022/12/02 04:32:13;;;;;;;;;;;;;;;3.48;79.98;100536.47;4970023;28;19921;-63
2022/12/02 04:34:38;;;;;;;;;;;;;;;3.99;78.95;100556.19;4971575;28;19965;-62
2022/12/02 04:37:03;;;;;;;;;;;;;;;4.01;78.53;100538.38;4970955;28;20375;-62
2022/12/02 04:39:29;;;;;;;;;;;;;;;3.84;78.61;100532.97;4967114;28;19923;-62
2022/12/02 04:41:54;;;;;;;;;;;;;;;3.62;78.34;100529.97;4971683;28;19929;-62
2022/12/02 04:44:19;;;;;;;;;;;;;;;3.85;77.74;100542.31;4971224;28;19928;-63
2022/12/02 04:46:44;;;;;;;;;;;;;;;3.33;79.91;100509.84;4970490;28;19917;-63
2022/12/02 04:49:09;;;;;;;;;;;;;;;3.98;77.76;100557.03;4969299;28;19930;-62
2022/12/02 04:51:35;;;;;;;;;;;;;;;3.12;80.24;100515.34;4970294;28;19930;-62
2022/12/02 04:54:00;;;;;;;;;;;;;;;3.12;79.34;100524.66;4970133;28;19961;-62
2022/12/02 04:56:25;;;;;;;;;;;;;;;3.61;80.05;100560.53;4971531;28;19953;-62
2022/12/02 04:58:50;;;;;;;;;;;;;;;3.21;81.43;100547.75;4969905;28;19964;-63
2022/12/02 05:01:16;;;;;;;;;;;;;;;3.95;79.66;100590.97;4969570;28;20410;-62
2022/12/02 05:03:41;;;;;;;;;;;;;;;3.34;81.21;100557.41;4966949;28;20365;-62
2022/12/02 05:06:06;;;;;;;;;;;;;;;3.28;81.10;100549.63;4971579;28;20085;-62
2022/12/02 05:08:31;;;;;;;;;;;;;;;3.61;80.42;100563.94;4968264;28;19986;-62
2022/12/02 05:10:56;;;;;;;;;;;;;;;3.58;81.09;100561.34;4969584;28;20330;-62
2022/12/02 05:13:22;;;;;;;;;;;;;;;3.61;80.97;100571.56;4968036;28;20131;-63
2022/12/02 05:15:47;;;;;;;;;;;;;;;3.85;80.32;100571.22;4970653;28;20065;-62
2022/12/02 05:18:12;;;;;;;;;;;;;;;3.92;80.93;100570.53;4969881;28;19917;-62
2022/12/02 05:20:37;;;;;;;;;;;;;;;3.87;80.02;100568.72;4968757;28;19922;-62
2022/12/02 05:23:03;;;;;;;;;;;;;;;3.53;81.42;100547.63;4970598;28;19918;-62
2022/12/02 05:25:28;;;;;;;;;;;;;;;3.21;82.01;100534.19;4966186;28;19948;-64
2022/12/02 05:27:54;;;;;;;;;;;;;;;3.54;80.89;100545.09;4969834;28;19926;-63
2022/12/02 05:30:19;;;;;;;;;;;;;;;3.17;82.00;100528.19;4968227;28;19922;-62
2022/12/02 05:32:45;;;;;;;;;;;;;;;2.96;82.98;100522.56;4968525;28;19925;-63
2022/12/02 05:35:10;;;;;;;;;;;;;;;3.22;81.95;100541.88;4968972;28;19922;-63
2022/12/02 05:37:35;;;;;;;;;;;;;;;3.78;81.31;100580.41;4968369;28;19920;-61
2022/12/02 05:40:00;;;;;;;;;;;;;;;3.54;82.74;100564.63;4966706;28;19919;-65
2022/12/02 05:42:26;;;;;;;;;;;;;;;3.44;82.62;100555.91;4966379;28;20017;-63
2022/12/02 05:44:51;;;;;;;;;;;;;;;3.66;81.73;100552.16;4965720;28;19945;-63
2022/12/02 05:47:17;;;;;;;;;;;;;;;3.56;81.74;100543.47;4965595;28;19914;-62
2022/12/02 05:49:43;;;;;;;;;;;;;;;3.41;82.17;100534.63;4967202;28;19922;-62
2022/12/02 05:52:24;;;;;;;;;;;;;;;3.74;81.21;100548.06;4970077;28;19914;-62
2022/12/02 05:54:57;;;;;;;;;;;;;;;3.07;82.39;100516.06;4968799;28;20318;-63
2022/12/02 05:57:23;;;;;;;;;;;;;;;3.23;82.90;100528.28;4964386;28;19961;-64
2022/12/02 05:59:49;;;;;;;;;;;;;;;3.74;81.95;100563.38;4966537;28;19926;-62
2022/12/02 06:02:21;;;;;;;;;;;;;;;3.22;83.14;100541.00;4968273;28;19925;-65
2022/12/02 06:04:46;;;;;;;;;;;;;;;3.51;82.71;100557.78;4970400;28;19914;-64
2022/12/02 06:07:11;;;;;;;;;;;;;;;3.30;83.10;100553.06;4967686;28;20394;-63
2022/12/02 06:09:36;;;;;;;;;;;;;;;3.47;83.23;100572.97;4967588;28;19914;-63
2022/12/02 06:12:02;;;;;;;;;;;;;;;3.24;84.11;100563.13;4970651;28;19961;-62
2022/12/02 06:14:29;;;;;;;;;;;;;;;3.53;83.85;100584.13;4969372;28;19961;-61
2022/12/02 06:16:56;;;;;;;;;;;;;;;2.85;84.96;100537.59;4968221;28;19918;-62
2022/12/02 06:19:23;;;;;;;;;;;;;;;3.19;84.84;100567.22;4968159;28;19918;-62
2022/12/02 06:21:48;;;;;;;;;;;;;;;3.96;83.66;100612.22;4967589;28;19918;-61
2022/12/02 06:24:13;;;;;;;;;;;;;;;3.05;85.32;100553.31;4970851;28;20347;-62
2022/12/02 06:26:38;;;;;;;;;;;;;;;2.88;85.00;100546.16;4967841;28;20043;-62
2022/12/02 06:29:04;;;;;;;;;;;;;;;3.06;84.79;100557.63;4967917;28;20416;-63
2022/12/02 06:31:36;;;;;;;;;;;;;;;3.42;84.44;100595.78;4972611;28;20415;-62
2022/12/02 06:34:19;;;;;;;;;;;;;;;3.56;84.40;100596.94;4971145;28;19924;-62
2022/12/02 06:36:44;;;;;;;;;;;;;;;3.22;85.49;100577.50;4967485;28;20017;-61
2022/12/02 06:39:22;;;;;;;;;;;;;;;3.21;85.28;100575.75;4966608;28;20461;-62
2022/12/02 06:41:47;;;;;;;;;;;;;;;3.10;85.87;100577.19;4967535;28;19965;-61
2022/12/02 06:47:21;;;;;;;;;;;;;;;3.58;85.41;100597.00;4968685;28;19971;-61
2022/12/02 06:49:47;;;;;;;;;;;;;;;3.10;85.42;100569.56;4968944;28;19924;-62
2022/12/02 06:52:16;;;;;;;;;;;;;;;2.85;86.02;100548.66;4971327;28;19919;-62
2022/12/02 06:54:42;;;;;;;;;;;;;;;3.00;85.74;100560.00;4964009;28;19918;-62
2022/12/02 06:57:07;;;;;;;;;;;;;;;2.69;86.73;100557.59;4970233;28;19924;-61
2022/12/02 06:59:33;;;;;;;;;;;;;;;2.76;86.70;100568.78;4966588;28;20000;-61
2022/12/02 07:01:59;;;;;;;;;;;;;;;3.04;87.11;100600.84;4970962;28;19926;-61
2022/12/02 07:04:40;;;;;;;;;;;;;;;2.69;88.25;100584.69;4965332;28;19992;-63
2022/12/02 07:07:13;;;;;;;;;;;;;;;2.55;89.24;100573.31;4966908;28;20385;-61
2022/12/02 07:09:42;;;;;;;;;;;;;;;2.85;90.38;100611.38;4965330;28;19930;-62
2022/12/02 07:12:15;;;;;;;;;;;;;;;2.91;90.03;100622.56;4968890;28;19965;-61
2022/12/02 07:14:47;;;;;;;;;;;;;;;3.07;90.72;100628.03;4969573;28;19924;-61
2022/12/02 07:17:29;;;;;;;;;;;;;;;2.66;91.18;100603.28;4966163;28;19922;-61
2022/12/02 07:19:57;;;;;;;;;;;;;;;2.80;91.07;100618.88;4966732;28;19964;-61
2022/12/02 07:22:24;;;;;;;;;;;;;;;2.96;91.21;100629.47;4967036;28;19948;-60
2022/12/02 07:24:56;;;;;;;;;;;;;;;3.46;90.10;100647.63;4967887;28;19929;-62
2022/12/02 07:27:24;;;;;;;;;;;;;;;3.10;91.06;100629.00;4965457;28;20298;-61
2022/12/02 07:29:49;;;;;;;;;;;;;;;2.81;90.91;100597.72;4963222;28;19929;-61
2022/12/02 07:32:14;;;;;;;;;;;;;;;3.31;88.90;100615.91;4967600;28;19918;-62
2022/12/02 07:34:39;;;;;;;;;;;;;;;3.25;90.47;100604.72;4969680;28;19917;-62
2022/12/02 07:37:04;;;;;;;;;;;;;;;3.09;89.55;100595.84;4968094;28;19924;-66
2022/12/02 07:39:30;;;;;;;;;;;;;;;2.93;90.31;100580.19;4968957;28;19998;-58
2022/12/02 07:41:55;;;;;;;;;;;;;;;2.81;90.39;100569.75;4971595;28;20036;-57
2022/12/02 07:44:20;;;;;;;;;;;;;;;3.29;89.34;100602.28;4971312;28;19957;-58
2022/12/02 07:46:45;;;;;;;;;;;;;;;2.93;89.82;100572.56;4969464;28;19945;-60
2022/12/02 07:49:11;;;;;;;;;;;;;;;3.05;89.95;100588.97;4968172;28;19964;-56
2022/12/02 07:51:36;;;;;;;;;;;;;;;2.91;90.16;100586.09;4972421;28;19925;-57
2022/12/02 07:54:01;;;;;;;;;;;;;;;3.12;90.22;100593.38;4964481;28;19918;-56
2022/12/02 07:56:26;;;;;;;;;;;;;;;3.11;89.75;100589.13;4974007;28;20410;-56
2022/12/02 07:58:51;;;;;;;;;;;;;;;2.71;90.56;100568.66;4969415;28;20047;-56
2022/12/02 08:01:17;;;;;;;;;;;;;;;2.97;89.94;100583.69;4966573;28;19925;-57
2022/12/02 08:03:42;;;;;;;;;;;;;;;3.31;88.64;100598.09;4969685;28;19925;-57
2022/12/02 08:06:07;;;;;;;;;;;;;;;2.88;89.23;100556.34;4967407;28;19966;-56
2022/12/02 08:08:32;;;;;;;;;;;;;;;2.96;88.07;100568.38;4965594;28;20895;-57
2022/12/02 08:10:58;;;;;;;;;;;;;;;3.18;88.38;100577.41;4968831;28;19954;-57
2022/12/02 08:13:23;;;;;;;;;;;;;;;2.85;88.61;100553.72;4966819;28;20368;-57
2022/12/02 08:15:48;;;;;;;;;;;;;;;3.17;87.02;100563.81;4970865;28;20357;-57
2022/12/02 08:18:13;;;;;;;;;;;;;;;3.03;87.51;100554.97;4970304;28;20275;-54
2022/12/02 08:20:38;;;;;;;;;;;;;;;3.23;86.99;100556.28;4970820;28;19984;-55
2022/12/02 08:23:04;;;;;;;;;;;;;;;3.10;85.32;100544.09;4967776;28;19918;-56
2022/12/02 08:25:29;;;;;;;;;;;;;;;3.25;84.78;100541.91;4969899;28;19918;-55
2022/12/02 08:27:54;;;;;;;;;;;;;;;3.10;85.01;100532.28;4967759;28;19925;-55
2022/12/02 08:30:20;;;;;;;;;;;;;;;2.91;84.49;100519.94;4967870;28;19924;-56
2022/12/02 08:32:45;;;;;;;;;;;;;;;3.64;83.41;100551.25;4971399;28;19914;-55
2022/12/02 08:35:11;;;;;;;;;;;;;;;3.85;81.34;100557.63;4968255;28;19918;-55
2022/12/02 08:37:37;;;;;;;;;;;;;;;3.74;80.65;100531.91;4972698;28;19918;-55
2022/12/02 08:40:02;;;;;;;;;;;;;;;3.12;80.76;100487.34;4965484;28;19918;-54
2022/12/02 08:42:28;;;;;;;;;;;;;;;3.31;78.29;100487.75;4971434;28;20459;-56
2022/12/02 08:44:53;;;;;;;;;;;;;;;3.20;78.50;100482.41;4973183;28;19924;-56
2022/12/02 08:47:18;;;;;;;;;;;;;;;2.97;77.96;100468.34;4969215;28;19918;-56
2022/12/02 08:49:43;;;;;;;;;;;;;;;3.75;75.04;100498.81;4965950;28;20530;-52
2022/12/02 08:52:08;;;;;;;;;;;;;;;3.33;75.38;100479.31;4971216;28;20493;-57
2022/12/02 08:54:34;;;;;;;;;;;;;;;3.01;75.11;100463.34;4967010;28;19914;-57
2022/12/02 08:56:59;;;;;;;;;;;;;;;3.02;74.14;100464.19;4968739;28;19976;-57
2022/12/02 08:59:26;;;;;;;;;;;;;;;3.19;73.77;100478.13;4968890;28;19918;-57
2022/12/02 09:01:51;;;;;;;;;;;;;;;3.55;71.67;100495.00;4970703;28;19917;-57
2022/12/02 09:04:16;;;;;;;;;;;;;;;3.16;72.57;100474.69;4969232;28;19924;-57
2022/12/02 09:06:42;;;;;;;;;;;;;;;3.58;70.24;100487.47;4965809;28;19918;-56
2022/12/02 09:09:07;;;;;;;;;;;;;;;4.06;68.30;100494.34;4969944;28;20001;-57
2022/12/02 09:11:32;;;;;;;;;;;;;;;3.46;69.86;100456.63;4969345;28;19967;-58
2022/12/02 09:13:57;;;;;;;;;;;;;;;3.53;68.06;100440.63;4971326;28;19922;-57
2022/12/02 09:16:23;;;;;;;;;;;;;;;3.49;67.64;100431.22;4968819;28;19918;-61
2022/12/02 09:18:49;;;;;;;;;;;;;;;3.95;64.63;100460.13;4969054;28;19969;-62
2022/12/02 09:21:14;;;;;;;;;;;;;;;3.18;66.84;100417.88;4968330;28;19918;-60
2022/12/02 09:23:39;;;;;;;;;;;;;;;3.32;64.28;100439.38;4972788;28;19925;-61
2022/12/02 09:26:05;;;;;;;;;;;;;;;4.29;61.11;100473.44;4967939;28;19924;-60
2022/12/02 09:28:30;;;;;;;;;;;;;;;3.90;62.55;100431.13;4970784;28;20009;-60
2022/12/02 09:30:55;;;;;;;;;;;;;;;3.92;60.75;100414.19;4972163;28;19997;-60
2022/12/02 09:33:20;;;;;;;;;;;;;;;4.63;55.97;100430.63;4965104;28;19917;-61
2022/12/02 09:35:46;;;;;;;;;;;;;;;4.17;59.54;100374.66;4970158;28;20012;-61
2022/12/02 09:38:11;;;;;;;;;;;;;;;3.53;62.21;100329.41;4966675;28;19960;-61
2022/12/02 09:40:36;;;;;;;;;;;;;;;3.89;59.30;100340.22;4969148;28;19958;-61
2022/12/02 09:43:02;;;;;;;;;;;;;;;3.42;62.95;100319.88;4969331;28;20372;-62
2022/12/02 09:45:27;;;;;;;;;;;;;;;3.89;58.89;100323.25;4966062;28;20302;-61
2022/12/02 09:47:53;;;;;;;;;;;;;;;3.33;62.21;100315.47;4969393;28;19929;-62
2022/12/02 09:50:18;;;;;;;;;;;;;;;4.21;58.14;100329.69;4967473;28;20014;-61
2022/12/02 09:52:43;;;;;;;;;;;;;;;3.63;63.46;100302.44;4967308;28;19929;-61
2022/12/02 09:55:10;;;;;;;;;;;;;;;3.53;64.19;100287.81;4967377;28;19918;-61
2022/12/02 09:57:35;;;;;;;;;;;;;;;3.40;64.68;100280.78;4970130;28;19918;-61
2022/12/02 10:00:01;;;;;;;;;;;;;;;3.21;66.50;100262.66;4966365;28;19945;-61
2022/12/02 10:02:29;;;;;;;;;;;;;;;3.52;64.54;100273.38;4963538;28;19929;-60
2022/12/02 10:04:54;;;;;;;;;;;;;;;3.71;66.27;100261.78;4972391;28;19914;-60
2022/12/02 10:07:20;;;;;;;;;;;;;;;3.61;68.05;100245.50;4951257;28;19914;-60
2022/12/02 10:09:45;;;;;;;;;;;;;;;3.56;70.54;100230.16;4969025;28;19971;-60
2022/12/02 10:12:10;;;;;;;;;;;;;;;3.31;74.24;100211.06;4968563;28;19928;-61
2022/12/02 10:14:36;;;;;;;;;;;;;;;3.30;75.31;100201.69;4969837;28;20030;-60
2022/12/02 10:17:01;;;;;;;;;;;;;;;3.37;75.61;100184.84;4970282;28;19957;-61
2022/12/02 10:19:26;;;;;;;;;;;;;;;3.23;76.98;100186.31;4966711;28;19925;-61
2022/12/02 10:21:52;;;;;;;;;;;;;;;3.82;74.11;100198.28;4969199;28;19918;-60
2022/12/02 10:24:17;;;;;;;;;;;;;;;2.72;82.60;100147.28;4965644;28;19917;-61
2022/12/02 10:26:47;;;;;;;;;;;;;;;3.53;77.04;100168.97;4968778;28;20587;-60
2022/12/02 10:29:24;;;;;;;;;;;;;;;3.50;81.07;100155.34;4968228;28;19932;-60
2022/12/02 10:31:53;;;;;;;;;;;;;;;3.58;83.39;100135.97;4969342;28;19922;-60
2022/12/02 10:34:19;;;;;;;;;;;;;;;3.40;87.14;100120.38;4968497;28;20048;-61
2022/12/02 10:36:44;;;;;;;;;;;;;;;3.41;89.16;100099.19;4968868;28;19996;-60
2022/12/02 10:39:12;;;;;;;;;;;;;;;3.40;91.01;100093.25;4965279;28;20029;-60
2022/12/02 10:41:38;;;;;;;;;;;;;;;3.76;91.50;100095.44;4967872;28;19922;-60
2022/12/02 10:44:05;;;;;;;;;;;;;;;3.32;95.16;100070.19;4969090;28;19921;-61
2022/12/02 10:46:32;;;;;;;;;;;;;;;4.27;91.12;100090.09;4967785;28;20222;-60
2022/12/02 10:49:22;;;;;;;;;;;;;;;4.40;96.06;100071.53;4966093;28;20042;-60
2022/12/02 10:51:47;;;;;;;;;;;;;;;3.21;100.00;100023.38;4968008;28;19918;-60
2022/12/02 10:54:23;;;;;;;;;;;;;;;3.48;100.00;100016.94;4967976;28;19918;-60
2022/12/02 10:56:48;;;;;;;;;;;;;;;3.06;100.00;100006.19;4970909;28;19941;-60
2022/12/02 10:59:13;;;;;;;;;;;;;;;3.63;100.00;100019.69;4966553;28;20447;-60
2022/12/02 11:01:39;;;;;;;;;;;;;;;4.08;100.00;100023.63;4966956;28;20386;-61
2022/12/02 11:04:07;;;;;;;;;;;;;;;4.09;100.00;100015.13;4969186;28;20442;-60
2022/12/02 11:06:32;;;;;;;;;;;;;;;3.86;100.00;100001.28;4967872;28;19967;-61
2022/12/02 11:08:57;;;;;;;;;;;;;;;3.52;100.00;99965.22;4969268;28;20655;-60
2022/12/02 11:11:22;;;;;;;;;;;;;;;3.85;100.00;99977.47;4968530;28;19914;-60
2022/12/02 11:13:48;;;;;;;;;;;;;;;3.88;100.00;99976.69;4968201;28;19975;-60
2022/12/02 11:16:26;;;;;;;;;;;;;;;4.03;100.00;99965.78;4968169;28;19921;-60
2022/12/02 11:19:11;;;;;;;;;;;;;;;3.57;100.00;99953.38;4968037;28;19914;-60
2022/12/02 11:21:40;;;;;;;;;;;;;;;3.69;100.00;99957.75;4954271;28;19931;-60
2022/12/02 11:24:20;;;;;;;;;;;;;;;3.83;100.00;99970.66;4966397;28;20957;-60
2022/12/02 11:27:04;;;;;;;;;;;;;;;3.75;100.00;99984.16;4968104;28;19965;-60
2022/12/02 11:29:42;;;;;;;;;;;;;;;3.14;100.00;99978.31;4966306;28;19926;-60
2022/12/02 11:32:13;;;;;;;;;;;;;;;3.38;100.00;99998.16;4966563;28;19914;-61
2022/12/02 11:34:45;;;;;;;;;;;;;;;3.80;98.46;100029.22;4968823;28;19964;-61
2022/12/02 11:37:29;;;;;;;;;;;;;;;3.96;97.57;100034.50;4968239;28;20526;-60
2022/12/02 11:39:57;;;;;;;;;;;;;;;4.00;94.78;100039.66;4966733;28;20291;-60
2022/12/02 11:42:23;;;;;;;;;;;;;;;3.32;98.28;100026.91;4951065;28;20367;-60
2022/12/02 11:44:49;;;;;;;;;;;;;;;3.63;92.78;100039.22;4965662;28;20283;-61
2022/12/02 11:47:24;;;;;;;;;;;;;;;3.12;95.31;100033.41;4966835;28;19922;-60
2022/12/02 11:49:49;;;;;;;;;;;;;;;3.90;88.64;100064.16;4966870;28;19925;-60
2022/12/02 11:52:16;;;;;;;;;;;;;;;3.70;87.60;100071.56;4967221;28;19918;-60
2022/12/02 11:54:44;;;;;;;;;;;;;;;3.09;89.50;100051.19;4965565;28;20849;-61
2022/12/02 11:57:19;;;;;;;;;;;;;;;3.02;87.33;100075.69;4967397;28;19922;-60
2022/12/02 11:59:44;;;;;;;;;;;;;;;3.35;85.40;100085.53;4967104;28;20365;-60
2022/12/02 12:02:11;;;;;;;;;;;;;;;3.21;85.79;100086.16;4965515;28;19929;-60
2022/12/02 12:04:37;;;;;;;;;;;;;;;3.40;83.36;100100.88;4967150;28;19918;-60
2022/12/02 12:07:02;;;;;;;;;;;;;;;3.28;83.42;100104.06;4966989;28;19925;-60
2022/12/02 12:09:28;;;;;;;;;;;;;;;3.22;83.13;100098.91;4969221;28;19964;-60
2022/12/02 12:12:11;;;;;;;;;;;;;;;3.54;80.11;100109.56;4967358;28;19964;-60
2022/12/02 12:14:52;;;;;;;;;;;;;;;3.89;81.33;100119.38;4966624;28;19918;-60
2022/12/02 12:17:29;;;;;;;;;;;;;;;3.53;84.61;100094.25;4967493;28;19925;-60
2022/12/02 12:19:54;;;;;;;;;;;;;;;3.33;85.60;100081.22;4965321;28;19933;-60
2022/12/02 12:22:23;;;;;;;;;;;;;;;3.17;85.12;100080.19;4967449;28;20315;-60
2022/12/02 12:24:48;;;;;;;;;;;;;;;3.30;83.32;100091.38;4966923;28;19922;-60
2022/12/02 12:27:31;;;;;;;;;;;;;;;4.05;79.64;100115.31;4971719;28;19925;-60
2022/12/02 12:29:56;;;;;;;;;;;;;;;3.27;86.99;100082.00;4969909;28;19917;-60
2022/12/02 12:32:21;;;;;;;;;;;;;;;2.86;85.51;100069.50;4970369;28;19928;-60
2022/12/02 12:34:47;;;;;;;;;;;;;;;3.19;82.85;100083.56;4968975;28;19929;-60
2022/12/02 12:37:12;;;;;;;;;;;;;;;2.99;83.19;100084.94;4967878;28;19980;-60
2022/12/02 12:39:38;;;;;;;;;;;;;;;3.55;78.25;100113.81;4970108;28;20033;-60
2022/12/02 12:42:03;;;;;;;;;;;;;;;3.15;78.83;100107.28;4969069;28;19918;-60
2022/12/02 12:44:28;;;;;;;;;;;;;;;3.45;77.93;100121.31;4972588;28;20375;-60
2022/12/02 12:46:54;;;;;;;;;;;;;;;3.36;79.33;100101.66;4972006;28;19929;-60
2022/12/02 12:49:19;;;;;;;;;;;;;;;3.30;79.18;100099.88;4974067;28;19970;-60